Time;durP1;ratioP1;P1;durP2;ratioP2;P2;SDS_P1;SDS_P2;PMS_P1;PMS_P2;Temp;Humidity;BMP_temperature;BMP_pressure;BME280_temperature;BME280_humidity;BME280_pressure;Samples;Min_cycle;Max_cycle;Signal;HPM_P1;HPM_P2
2024/02/03 00:01:42;;;;;;;20.10;17.47;;;9.20;93.20;;;;;;5071826;28;20195;-87
2024/02/03 00:04:07;;;;;;;26.67;17.93;;;9.10;93.60;;;;;;5071812;28;20643;-87
2024/02/03 00:06:33;;;;;;;20.00;17.40;;;9.10;93.90;;;;;;5071681;28;20187;-87
2024/02/03 00:08:58;;;;;;;21.67;15.83;;;9.00;94.20;;;;;;5072913;28;20171;-87
2024/02/03 00:11:24;;;;;;;27.70;18.53;;;9.00;94.40;;;;;;5071620;28;20570;-87
2024/02/03 00:13:49;;;;;;;26.60;18.07;;;8.90;94.60;;;;;;5071695;28;20195;-87
2024/02/03 00:16:15;;;;;;;23.67;16.43;;;8.90;94.70;;;;;;5071666;28;20182;-87
2024/02/03 00:18:41;;;;;;;28.13;20.60;;;8.90;94.90;;;;;;5071551;28;20175;-86
2024/02/03 00:21:06;;;;;;;21.10;17.60;;;8.90;95.00;;;;;;5071795;28;20563;-86
2024/02/03 00:23:32;;;;;;;22.27;16.13;;;8.90;95.10;;;;;;5073153;28;20172;-88
2024/02/03 00:25:58;;;;;;;23.43;16.80;;;8.90;95.20;;;;;;5071848;28;20240;-87
2024/02/03 00:28:23;;;;;;;19.27;16.00;;;9.00;95.30;;;;;;5072781;28;20198;-86
2024/02/03 00:30:49;;;;;;;18.10;12.83;;;9.00;95.30;;;;;;5072606;28;20175;-87
2024/02/03 00:33:14;;;;;;;20.13;13.57;;;8.90;95.40;;;;;;5071282;28;20230;-86
2024/02/03 00:35:40;;;;;;;17.17;11.50;;;9.00;95.40;;;;;;5071424;28;20179;-86
2024/02/03 00:38:06;;;;;;;16.87;13.20;;;9.00;95.40;;;;;;5071445;28;20692;-86
2024/02/03 00:40:32;;;;;;;19.17;14.20;;;9.00;95.40;;;;;;5072737;28;20545;-86
2024/02/03 00:42:57;;;;;;;17.13;11.53;;;9.00;95.40;;;;;;5071591;28;20209;-87
2024/02/03 00:45:23;;;;;;;20.47;12.97;;;9.00;95.50;;;;;;5071470;28;20263;-86
2024/02/03 00:47:49;;;;;;;21.40;12.73;;;9.00;95.50;;;;;;5071393;28;20191;-86
2024/02/03 00:50:15;;;;;;;17.43;11.97;;;9.00;95.50;;;;;;5072559;28;20171;-86
2024/02/03 00:52:42;;;;;;;16.63;10.47;;;9.00;95.60;;;;;;5071276;28;20222;-86
2024/02/03 00:55:08;;;;;;;17.23;12.03;;;9.00;95.60;;;;;;5071504;28;20179;-86
2024/02/03 00:57:34;;;;;;;15.13;11.50;;;9.10;95.70;;;;;;5071479;28;20171;-86
2024/02/03 01:00:00;;;;;;;11.57;8.60;;;9.00;95.70;;;;;;5071244;28;20182;-86
2024/02/03 01:02:25;;;;;;;11.00;7.53;;;9.10;95.70;;;;;;5074442;28;20252;-86
2024/02/03 01:04:51;;;;;;;26.03;12.63;;;9.10;95.80;;;;;;5074673;28;20179;-86
2024/02/03 01:07:17;;;;;;;16.50;12.97;;;9.10;95.70;;;;;;5074666;28;20179;-86
2024/02/03 01:09:42;;;;;;;16.30;12.57;;;9.10;95.80;;;;;;5074493;28;20191;-86
2024/02/03 01:12:08;;;;;;;19.67;13.67;;;9.10;95.70;;;;;;5074493;28;20207;-87
2024/02/03 01:14:33;;;;;;;17.50;13.93;;;9.10;95.70;;;;;;5074506;28;20179;-86
2024/02/03 01:16:59;;;;;;;18.50;13.47;;;9.10;95.70;;;;;;5075713;28;20172;-86
2024/02/03 01:19:25;;;;;;;20.60;13.47;;;9.10;95.70;;;;;;5074479;28;20180;-86
2024/02/03 01:21:50;;;;;;;15.87;11.40;;;9.10;95.70;;;;;;5075493;28;20195;-86
2024/02/03 01:24:16;;;;;;;22.20;13.80;;;9.10;95.60;;;;;;5075538;28;20176;-86
2024/02/03 01:26:41;;;;;;;25.00;14.37;;;9.10;95.60;;;;;;5074323;28;20618;-86
2024/02/03 01:29:07;;;;;;;23.80;15.03;;;9.10;95.50;;;;;;5075583;28;20233;-86
2024/02/03 01:31:32;;;;;;;18.77;14.73;;;9.20;95.40;;;;;;5075427;28;20195;-85
2024/02/03 01:33:58;;;;;;;20.57;14.80;;;9.20;95.40;;;;;;5074141;28;20230;-86
2024/02/03 01:36:24;;;;;;;22.77;15.90;;;9.20;95.30;;;;;;5075528;28;20185;-86
2024/02/03 01:38:52;;;;;;;22.33;14.20;;;9.20;95.30;;;;;;5075375;28;20174;-86
2024/02/03 01:41:17;;;;;;;24.27;15.57;;;9.20;95.20;;;;;;5074103;28;20187;-86
2024/02/03 01:43:46;;;;;;;19.73;13.13;;;9.20;95.10;;;;;;5074289;28;20183;-86
2024/02/03 01:46:12;;;;;;;19.63;12.53;;;9.20;95.10;;;;;;5073941;28;20178;-86
2024/02/03 01:48:39;;;;;;;20.40;13.30;;;9.30;95.00;;;;;;5073859;28;20175;-86
2024/02/03 01:51:08;;;;;;;23.00;14.07;;;9.20;94.80;;;;;;5074706;28;20033;-86
2024/02/03 01:53:34;;;;;;;17.70;10.40;;;9.30;94.70;;;;;;5073953;28;20207;-86
2024/02/03 01:56:00;;;;;;;28.37;13.03;;;9.30;94.70;;;;;;5073649;28;20547;-86
2024/02/03 01:58:26;;;;;;;22.17;12.73;;;9.30;94.60;;;;;;5073713;28;20179;-86
2024/02/03 02:00:53;;;;;;;19.47;12.57;;;9.20;94.60;;;;;;5074916;28;20168;-86
2024/02/03 02:03:19;;;;;;;23.13;12.67;;;9.30;94.60;;;;;;5073822;28;20655;-87
2024/02/03 02:05:45;;;;;;;28.07;11.73;;;9.30;94.50;;;;;;5073870;28;20259;-86
2024/02/03 02:08:11;;;;;;;24.20;16.67;;;9.30;94.40;;;;;;5073746;28;20175;-86
2024/02/03 02:10:37;;;;;;;25.30;14.63;;;9.30;94.30;;;;;;5073574;28;20659;-86
2024/02/03 02:13:03;;;;;;;25.50;16.23;;;9.30;94.20;;;;;;5072631;28;20207;-86
2024/02/03 02:15:29;;;;;;;20.80;14.33;;;9.30;94.10;;;;;;5073505;28;20700;-86
2024/02/03 02:17:59;;;;;;;20.87;14.53;;;9.40;93.90;;;;;;5073459;28;20531;-87
2024/02/03 02:20:25;;;;;;;25.47;15.53;;;9.40;93.70;;;;;;5073425;28;20172;-87
2024/02/03 02:22:50;;;;;;;21.80;14.23;;;9.40;93.60;;;;;;5073656;28;20203;-87
2024/02/03 02:25:16;;;;;;;21.93;14.17;;;9.50;93.50;;;;;;5073263;28;20553;-86
2024/02/03 02:27:42;;;;;;;25.10;15.53;;;9.40;93.30;;;;;;5073354;28;20179;-88
2024/02/03 02:30:08;;;;;;;23.07;15.23;;;9.40;93.20;;;;;;5074522;28;20168;-86
2024/02/03 02:32:34;;;;;;;23.53;15.00;;;9.40;93.20;;;;;;5072938;28;20203;-87
2024/02/03 02:34:59;;;;;;;17.73;13.37;;;9.40;93.10;;;;;;5073246;28;20176;-86
2024/02/03 02:37:25;;;;;;;26.27;15.50;;;9.50;93.10;;;;;;5073126;28;20258;-87
2024/02/03 02:39:50;;;;;;;22.87;14.10;;;9.40;93.00;;;;;;5073061;28;20183;-87
2024/02/03 02:42:16;;;;;;;14.60;13.10;;;9.50;92.90;;;;;;5072893;28;20195;-87
2024/02/03 02:44:42;;;;;;;18.97;14.30;;;9.50;92.80;;;;;;5072940;28;20172;-87
2024/02/03 02:47:07;;;;;;;16.27;13.73;;;9.60;92.60;;;;;;5074181;28;20713;-86
2024/02/03 02:49:33;;;;;;;17.97;13.97;;;9.50;92.60;;;;;;5072801;28;20171;-86
2024/02/03 02:51:59;;;;;;;17.50;14.10;;;9.50;92.60;;;;;;5072950;28;20203;-87
2024/02/03 02:54:24;;;;;;;19.07;14.43;;;9.60;92.60;;;;;;5072762;28;20191;-87
2024/02/03 02:56:50;;;;;;;18.37;9.57;;;9.50;92.50;;;;;;5074321;28;20178;-88
2024/02/03 02:59:19;;;;;;;18.97;8.70;;;9.50;92.40;;;;;;5073898;28;20240;-86
2024/02/03 03:01:45;;;;;;;19.33;9.20;;;9.60;92.30;;;;;;5072651;28;20199;-87
2024/02/03 03:04:10;;;;;;;16.50;9.27;;;9.60;92.30;;;;;;5073746;28;20526;-86
2024/02/03 03:06:36;;;;;;;18.67;9.00;;;9.60;92.30;;;;;;5073338;28;20225;-87
2024/02/03 03:09:01;;;;;;;18.17;9.30;;;9.50;92.30;;;;;;5072464;28;20175;-87
2024/02/03 03:11:27;;;;;;;13.93;8.57;;;9.60;92.30;;;;;;5072584;28;20211;-86
2024/02/03 03:13:52;;;;;;;24.53;10.53;;;9.50;92.20;;;;;;5072508;28;20203;-87
2024/02/03 03:16:18;;;;;;;17.20;8.77;;;9.50;92.30;;;;;;5072354;28;20222;-86
2024/02/03 03:18:44;;;;;;;16.63;10.17;;;9.50;92.30;;;;;;5073184;28;20194;-87
2024/02/03 03:21:09;;;;;;;16.80;9.10;;;9.60;92.20;;;;;;5073617;28;20191;-89
2024/02/03 03:23:35;;;;;;;27.27;10.03;;;9.60;92.20;;;;;;5072122;28;20186;-86
2024/02/03 03:26:01;;;;;;;15.63;9.37;;;9.50;92.30;;;;;;5072811;28;20182;-86
2024/02/03 03:28:26;;;;;;;17.90;9.10;;;9.60;92.30;;;;;;5072599;28;20279;-87
2024/02/03 03:30:52;;;;;;;18.67;10.63;;;9.60;92.30;;;;;;5072615;28;20215;-88
2024/02/03 03:33:18;;;;;;;26.20;10.07;;;9.50;92.30;;;;;;5072502;28;20579;-87
2024/02/03 03:35:43;;;;;;;12.47;9.43;;;9.50;92.30;;;;;;5072116;28;20171;-86
2024/02/03 03:38:11;;;;;;;22.37;9.87;;;9.50;92.30;;;;;;5073557;28;20221;-87
2024/02/03 03:40:37;;;;;;;15.53;9.23;;;9.50;92.30;;;;;;5073388;28;20213;-87
2024/02/03 03:43:04;;;;;;;18.30;9.57;;;9.50;92.40;;;;;;5073484;28;20191;-86
2024/02/03 03:45:30;;;;;;;15.33;9.40;;;9.50;92.50;;;;;;5072112;28;20183;-87
2024/02/03 03:47:55;;;;;;;18.97;9.47;;;9.50;92.40;;;;;;5072242;28;20707;-87
2024/02/03 03:50:21;;;;;;;19.67;9.03;;;9.50;92.30;;;;;;5073331;28;20182;-87
2024/02/03 03:52:46;;;;;;;15.07;9.47;;;9.50;92.30;;;;;;5071938;28;20219;-86
2024/02/03 03:55:12;;;;;;;18.50;9.97;;;9.50;92.30;;;;;;5073280;28;20180;-86
2024/02/03 03:57:37;;;;;;;18.87;9.00;;;9.60;92.20;;;;;;5073288;28;20177;-86
2024/02/03 04:00:10;;;;;;;22.23;9.93;;;9.50;92.20;;;;;;5071973;28;20175;-86
2024/02/03 04:02:36;;;;;;;16.70;9.67;;;9.60;92.20;;;;;;5073263;28;20678;-86
2024/02/03 04:05:01;;;;;;;18.53;9.30;;;9.60;92.00;;;;;;5073362;28;20176;-86
2024/02/03 04:07:27;;;;;;;17.07;9.57;;;9.60;92.00;;;;;;5071782;28;20225;-86
2024/02/03 04:09:52;;;;;;;14.17;8.93;;;9.60;91.90;;;;;;5071943;28;20183;-86
2024/02/03 04:12:18;;;;;;;21.30;9.40;;;9.50;92.10;;;;;;5071695;28;20206;-87
2024/02/03 04:14:46;;;;;;;20.23;10.07;;;9.60;92.10;;;;;;5071986;28;20197;-86
2024/02/03 04:17:15;;;;;;;15.60;9.10;;;9.60;92.00;;;;;;5073379;28;20172;-87
2024/02/03 04:19:41;;;;;;;18.10;9.53;;;9.60;92.00;;;;;;5071845;28;20650;-86
2024/02/03 04:22:08;;;;;;;20.30;9.90;;;9.60;92.00;;;;;;5071560;28;20199;-87
2024/02/03 04:24:34;;;;;;;22.43;10.13;;;9.50;92.10;;;;;;5071833;28;20175;-87
2024/02/03 04:27:00;;;;;;;18.57;9.70;;;9.50;92.30;;;;;;5071659;28;20171;-86
2024/02/03 04:29:25;;;;;;;19.70;9.77;;;9.50;92.30;;;;;;5071640;28;20662;-86
2024/02/03 04:31:51;;;;;;;24.27;10.40;;;9.50;92.30;;;;;;5071564;28;20195;-86
2024/02/03 04:34:18;;;;;;;19.87;9.80;;;9.50;92.30;;;;;;5071516;28;20187;-87
2024/02/03 04:36:43;;;;;;;17.93;9.10;;;9.50;92.30;;;;;;5074860;28;20175;-86
2024/02/03 04:39:09;;;;;;;16.83;9.73;;;9.60;92.30;;;;;;5075336;28;20710;-87
2024/02/03 04:41:34;;;;;;;21.50;14.13;;;9.50;92.20;;;;;;5075685;28;20577;-87
2024/02/03 04:44:00;;;;;;;21.77;15.37;;;9.50;92.20;;;;;;5076621;28;20214;-86
2024/02/03 04:46:25;;;;;;;27.23;16.90;;;9.50;92.20;;;;;;5076424;28;20214;-87
2024/02/03 04:48:52;;;;;;;24.00;15.47;;;9.50;92.20;;;;;;5076268;28;20258;-86
2024/02/03 04:51:18;;;;;;;19.70;15.93;;;9.50;92.20;;;;;;5075089;28;20198;-87
2024/02/03 04:53:43;;;;;;;22.73;15.53;;;9.50;92.20;;;;;;5074828;28;20222;-86
2024/02/03 04:56:09;;;;;;;25.17;15.40;;;9.50;92.10;;;;;;5075048;28;20180;-87
2024/02/03 04:58:35;;;;;;;24.27;16.10;;;9.50;92.10;;;;;;5075102;28;20658;-86
2024/02/03 05:01:01;;;;;;;20.67;14.77;;;9.60;92.20;;;;;;5076060;28;20216;-85
2024/02/03 05:03:27;;;;;;;22.87;14.97;;;9.60;92.00;;;;;;5076120;28;20246;-86
2024/02/03 05:05:53;;;;;;;21.10;14.73;;;9.60;91.90;;;;;;5076109;28;20171;-86
2024/02/03 05:08:19;;;;;;;21.43;14.90;;;9.50;92.00;;;;;;5074852;28;20663;-87
2024/02/03 05:10:44;;;;;;;22.40;15.37;;;9.50;92.10;;;;;;5074846;28;20225;-86
2024/02/03 05:13:10;;;;;;;19.13;14.90;;;9.50;92.10;;;;;;5074889;28;20207;-87
2024/02/03 05:15:35;;;;;;;18.73;14.27;;;9.50;92.20;;;;;;5074767;28;20180;-86
2024/02/03 05:18:01;;;;;;;25.97;15.07;;;9.50;92.10;;;;;;5075853;28;20184;-86
2024/02/03 05:20:27;;;;;;;24.27;14.57;;;9.50;92.20;;;;;;5074520;28;20266;-87
2024/02/03 05:22:53;;;;;;;19.00;10.00;;;9.50;92.20;;;;;;5074706;28;20286;-87
2024/02/03 05:25:19;;;;;;;21.70;9.93;;;9.50;92.10;;;;;;5074646;28;20670;-87
2024/02/03 05:27:45;;;;;;;23.30;10.70;;;9.50;92.20;;;;;;5074684;28;20179;-87
2024/02/03 05:30:12;;;;;;;21.27;11.03;;;9.50;92.10;;;;;;5074566;28;20179;-87
2024/02/03 05:32:38;;;;;;;18.97;9.77;;;9.60;92.10;;;;;;5074293;28;20203;-86
2024/02/03 05:35:04;;;;;;;17.00;9.60;;;9.50;92.10;;;;;;5075457;28;20175;-87
2024/02/03 05:37:29;;;;;;;19.40;9.27;;;9.60;92.10;;;;;;5075822;28;20176;-86
2024/02/03 05:39:55;;;;;;;22.83;9.47;;;9.60;91.90;;;;;;5074679;28;20194;-87
2024/02/03 05:42:20;;;;;;;19.10;9.40;;;9.70;91.90;;;;;;5074356;28;20585;-87
2024/02/03 05:44:57;;;;;;;18.00;9.73;;;9.70;91.80;;;;;;5074325;28;20182;-86
2024/02/03 05:47:23;;;;;;;20.47;10.70;;;9.60;91.80;;;;;;5076411;28;20175;-87
2024/02/03 05:49:49;;;;;;;22.17;10.17;;;9.60;91.80;;;;;;5075649;28;20646;-87
2024/02/03 05:52:14;;;;;;;17.20;9.60;;;9.60;91.80;;;;;;5074929;28;20265;-87
2024/02/03 05:54:40;;;;;;;19.77;10.47;;;9.50;92.00;;;;;;5074121;28;20197;-87
2024/02/03 05:57:07;;;;;;;18.27;9.37;;;9.60;92.00;;;;;;5074066;28;20096;-86
2024/02/03 05:59:33;;;;;;;17.60;8.30;;;9.60;92.10;;;;;;5074100;28;20180;-87
2024/02/03 06:01:58;;;;;;;18.67;9.20;;;9.70;91.80;;;;;;5075206;28;20201;-86
2024/02/03 06:04:24;;;;;;;19.97;8.53;;;9.60;91.80;;;;;;5073889;28;20229;-87
2024/02/03 06:06:49;;;;;;;18.17;8.90;;;9.60;91.90;;;;;;5073986;28;20183;-87
2024/02/03 06:09:15;;;;;;;19.07;8.97;;;9.70;91.60;;;;;;5074856;28;20180;-87
2024/02/03 06:11:40;;;;;;;19.90;9.20;;;9.70;91.60;;;;;;5073823;28;20210;-87
2024/02/03 06:14:06;;;;;;;24.73;9.70;;;9.70;91.70;;;;;;5073903;28;20206;-87
2024/02/03 06:16:31;;;;;;;21.30;9.53;;;9.70;91.70;;;;;;5074231;28;20514;-87
2024/02/03 06:18:57;;;;;;;15.40;9.43;;;9.70;91.70;;;;;;5073815;28;20179;-87
2024/02/03 06:21:22;;;;;;;15.33;9.57;;;9.70;91.50;;;;;;5074899;28;20194;-87
2024/02/03 06:23:48;;;;;;;17.93;8.17;;;9.70;91.40;;;;;;5073640;28;20206;-87
2024/02/03 06:26:13;;;;;;;15.00;8.77;;;9.70;91.30;;;;;;5073403;28;20722;-87
2024/02/03 06:28:39;;;;;;;18.07;8.53;;;9.70;91.10;;;;;;5074495;28;20182;-87
2024/02/03 06:31:04;;;;;;;15.40;9.53;;;9.60;91.10;;;;;;5074459;28;20208;-87
2024/02/03 06:33:30;;;;;;;23.63;9.97;;;9.60;91.10;;;;;;5074742;28;20203;-88
2024/02/03 06:35:55;;;;;;;21.27;10.43;;;9.60;91.20;;;;;;5074782;28;20176;-87
2024/02/03 06:38:21;;;;;;;17.97;9.53;;;9.70;91.20;;;;;;5073179;28;20616;-87
2024/02/03 06:40:46;;;;;;;19.27;9.23;;;9.60;91.20;;;;;;5072978;28;20171;-87
2024/02/03 06:43:12;;;;;;;22.70;9.60;;;9.60;91.40;;;;;;5072894;28;20182;-86
2024/02/03 06:45:37;;;;;;;17.27;9.53;;;9.60;91.30;;;;;;5073816;28;20172;-87
2024/02/03 06:48:03;;;;;;;19.30;9.23;;;9.60;91.40;;;;;;5072921;28;20557;-87
2024/02/03 06:50:29;;;;;;;17.30;9.53;;;9.60;91.60;;;;;;5073305;28;20179;-87
2024/02/03 06:52:54;;;;;;;16.17;9.30;;;9.60;91.60;;;;;;5074453;28;20219;-87
2024/02/03 06:55:20;;;;;;;25.47;17.23;;;9.60;91.70;;;;;;5072619;28;20179;-87
2024/02/03 06:57:46;;;;;;;21.10;16.17;;;9.50;91.70;;;;;;5072834;28;20271;-87
2024/02/03 07:00:12;;;;;;;29.47;17.67;;;9.50;91.80;;;;;;5073782;28;20238;-86
2024/02/03 07:02:37;;;;;;;;;;;9.50;91.90;;;;;;5073787;28;20290;-87
2024/02/03 07:05:03;;;;;;;23.63;17.77;;;9.50;91.90;;;;;;5072660;28;20452;-86
2024/02/03 07:07:28;;;;;;;22.70;16.40;;;9.50;91.90;;;;;;5074121;28;20187;-86
2024/02/03 07:09:58;;;;;;;23.27;15.43;;;9.50;91.90;;;;;;5072969;28;20175;-87
2024/02/03 07:12:25;;;;;;;32.87;16.13;;;9.50;92.00;;;;;;5074110;28;20183;-87
2024/02/03 07:14:51;;;;;;;25.77;15.70;;;9.50;92.00;;;;;;5072536;28;20179;-87
2024/02/03 07:17:17;;;;;;;24.07;15.57;;;9.50;92.10;;;;;;5072468;28;20232;-87
2024/02/03 07:19:43;;;;;;;18.83;14.53;;;9.50;92.10;;;;;;5073560;28;20592;-86
2024/02/03 07:22:08;;;;;;;24.93;15.43;;;9.50;92.10;;;;;;5072516;28;20195;-87
2024/02/03 07:24:37;;;;;;;21.77;13.80;;;9.50;92.10;;;;;;5072394;28;20183;-86
2024/02/03 07:27:03;;;;;;;29.67;15.03;;;9.50;92.20;;;;;;5072432;28;20183;-87
2024/02/03 07:29:29;;;;;;;25.70;14.70;;;9.50;92.20;;;;;;5073804;28;20171;-87
2024/02/03 07:32:02;;;;;;;21.77;14.77;;;9.40;92.30;;;;;;5073592;28;20192;-87
2024/02/03 07:34:28;;;;;;;23.20;14.93;;;9.50;92.40;;;;;;5073676;28;20283;-86
2024/02/03 07:36:54;;;;;;;23.63;15.47;;;9.50;92.40;;;;;;5072404;28;20167;-86
2024/02/03 07:39:20;;;;;;;24.10;15.40;;;9.40;92.40;;;;;;5074044;28;20167;-87
2024/02/03 07:41:46;;;;;;;21.67;8.97;;;9.40;92.50;;;;;;5072119;28;20278;-86
2024/02/03 07:44:11;;;;;;;22.37;10.17;;;9.40;92.50;;;;;;5072225;28;20660;-87
2024/02/03 07:46:38;;;;;;;18.87;8.83;;;9.50;92.60;;;;;;5072103;28;20194;-87
2024/02/03 07:49:04;;;;;;;26.67;11.33;;;9.40;92.50;;;;;;5073379;28;20673;-86
2024/02/03 07:51:30;;;;;;;22.03;9.73;;;9.50;92.50;;;;;;5071738;28;20195;-87
2024/02/03 07:53:56;;;;;;;18.93;9.07;;;9.50;92.50;;;;;;5071355;28;20237;-86
2024/02/03 07:56:21;;;;;;;23.07;10.00;;;9.50;92.50;;;;;;5071194;28;20217;-87
2024/02/03 07:58:47;;;;;;;29.43;9.60;;;9.50;92.60;;;;;;5072281;28;20216;-86
2024/02/03 08:01:12;;;;;;;27.03;9.50;;;9.50;92.60;;;;;;5070954;28;20225;-86
2024/02/03 08:03:38;;;;;;;15.37;9.77;;;9.50;92.50;;;;;;5071947;28;20566;-88
2024/02/03 08:06:04;;;;;;;23.27;10.47;;;9.50;92.50;;;;;;5072558;28;20270;-87
2024/02/03 08:08:29;;;;;;;25.30;10.63;;;9.50;92.60;;;;;;5071196;28;20679;-87
2024/02/03 08:10:56;;;;;;;23.75;10.20;;;9.50;92.60;;;;;;5071836;28;20186;-87
2024/02/03 08:13:22;;;;;;;18.07;9.93;;;9.60;92.50;;;;;;5074744;28;19908;-86
2024/02/03 08:15:47;;;;;;;21.50;9.97;;;9.60;92.50;;;;;;5074388;28;20639;-87
2024/02/03 08:18:13;;;;;;;23.97;9.33;;;9.50;92.40;;;;;;5074436;28;20175;-87
2024/02/03 08:20:38;;;;;;;19.87;9.97;;;9.60;92.40;;;;;;5074565;28;20179;-87
2024/02/03 08:23:04;;;;;;;27.93;10.07;;;9.60;92.50;;;;;;5074388;28;20612;-87
2024/02/03 08:25:29;;;;;;;23.87;10.47;;;9.60;92.50;;;;;;5074332;28;20171;-87
2024/02/03 08:27:55;;;;;;;24.90;9.60;;;9.50;92.50;;;;;;5075908;28;20634;-88
2024/02/03 08:30:20;;;;;;;26.97;10.80;;;9.60;92.50;;;;;;5075766;28;20394;-87
2024/02/03 08:32:46;;;;;;;25.33;9.97;;;9.60;92.50;;;;;;5074138;28;20211;-87
2024/02/03 08:35:11;;;;;;;20.03;10.13;;;9.60;92.50;;;;;;5074278;28;20217;-86
2024/02/03 08:37:37;;;;;;;20.50;10.13;;;9.70;92.50;;;;;;5074066;28;20647;-87
2024/02/03 08:40:04;;;;;;;30.33;11.10;;;9.60;92.50;;;;;;5074787;28;20179;-88
2024/02/03 08:42:29;;;;;;;22.57;10.60;;;9.60;92.60;;;;;;5076090;28;20195;-87
2024/02/03 08:44:55;;;;;;;33.10;11.03;;;9.60;92.60;;;;;;5074042;28;20554;-87
2024/02/03 08:47:20;;;;;;;30.77;11.47;;;9.60;92.60;;;;;;5075618;28;20647;-86
2024/02/03 08:49:50;;;;;;;24.17;11.20;;;9.60;92.60;;;;;;5074001;28;20198;-87
2024/02/03 08:52:16;;;;;;;29.03;12.37;;;9.50;92.60;;;;;;5037810;28;1031222;-86
2024/02/03 08:54:41;;;;;;;24.70;11.53;;;9.60;92.60;;;;;;5075088;28;20183;-87
2024/02/03 08:57:07;;;;;;;30.50;12.03;;;9.60;92.50;;;;;;5076579;28;20190;-87
2024/02/03 08:59:32;;;;;;;26.60;11.03;;;9.60;92.60;;;;;;5075042;28;20244;-87
2024/02/03 09:01:58;;;;;;;25.77;14.20;;;9.60;92.50;;;;;;5076107;28;20686;-87
2024/02/03 09:04:23;;;;;;;32.87;16.43;;;9.70;92.30;;;;;;5075015;28;20185;-87
2024/02/03 09:06:49;;;;;;;28.30;15.63;;;9.70;92.30;;;;;;5074793;28;20175;-87
2024/02/03 09:09:14;;;;;;;25.43;15.87;;;9.70;92.30;;;;;;5076048;28;20208;-87
2024/02/03 09:11:39;;;;;;;;;;;9.70;92.30;;;;;;5074983;28;20255;-87
2024/02/03 09:14:05;;;;;;;29.25;16.73;;;9.70;92.40;;;;;;5074110;28;20390;-87
2024/02/03 09:16:31;;;;;;;23.50;15.63;;;9.70;92.30;;;;;;5074728;28;20172;-87
2024/02/03 09:18:56;;;;;;;26.17;16.37;;;9.70;92.30;;;;;;5075713;28;20172;-86
2024/02/03 09:21:22;;;;;;;20.53;14.57;;;9.70;92.30;;;;;;5074595;28;20192;-87
2024/02/03 09:23:47;;;;;;;25.60;14.67;;;9.70;92.30;;;;;;5074603;28;20167;-86
2024/02/03 09:26:13;;;;;;;29.37;16.27;;;9.80;92.20;;;;;;5074627;28;20172;-87
2024/02/03 09:28:38;;;;;;;21.33;15.13;;;9.80;92.20;;;;;;5074773;28;20553;-87
2024/02/03 09:31:05;;;;;;;24.87;11.47;;;9.80;92.20;;;;;;5074312;28;20201;-87
2024/02/03 09:33:31;;;;;;;23.83;11.67;;;9.80;92.20;;;;;;5074401;28;20256;-87
2024/02/03 09:35:56;;;;;;;23.00;11.43;;;9.80;92.20;;;;;;5074442;28;20180;-86
2024/02/03 09:38:22;;;;;;;23.50;11.87;;;9.80;92.10;;;;;;5075309;28;20243;-89
2024/02/03 09:40:47;;;;;;;23.73;11.87;;;9.80;92.10;;;;;;5076709;28;20171;-88
2024/02/03 09:43:13;;;;;;;20.67;10.93;;;9.80;92.10;;;;;;5074397;28;20776;-86
2024/02/03 09:45:39;;;;;;;26.13;11.93;;;9.80;91.90;;;;;;5074236;28;20171;-87
2024/02/03 09:48:05;;;;;;;23.63;11.20;;;9.90;91.80;;;;;;5075423;28;20175;-86
2024/02/03 09:50:31;;;;;;;19.17;11.63;;;9.90;91.80;;;;;;5075239;28;20233;-87
2024/02/03 09:53:00;;;;;;;19.47;12.10;;;9.90;91.70;;;;;;5075147;28;20682;-87
2024/02/03 09:55:26;;;;;;;19.60;10.30;;;9.90;91.70;;;;;;5074071;28;20179;-87
2024/02/03 09:57:52;;;;;;;27.70;12.17;;;9.90;91.70;;;;;;5073953;28;20171;-87
2024/02/03 10:00:24;;;;;;;18.87;10.87;;;9.90;91.60;;;;;;5074026;28;20206;-87
2024/02/03 10:02:49;;;;;;;21.30;10.67;;;9.90;91.60;;;;;;5073737;28;20203;-87
2024/02/03 10:05:28;;;;;;;18.63;10.27;;;9.90;91.60;;;;;;5073867;28;20186;-87
2024/02/03 10:08:05;;;;;;;20.20;11.23;;;9.90;91.70;;;;;;5074079;28;20172;-86
2024/02/03 10:10:35;;;;;;;21.83;11.10;;;9.90;91.80;;;;;;5073644;28;20174;-86
2024/02/03 10:13:05;;;;;;;17.27;10.67;;;9.90;91.70;;;;;;5073473;28;20298;-87
2024/02/03 10:15:31;;;;;;;20.23;10.77;;;9.90;91.70;;;;;;5073708;28;20172;-87
2024/02/03 10:17:58;;;;;;;25.00;11.77;;;9.90;91.60;;;;;;5074777;28;20690;-87
2024/02/03 10:20:25;;;;;;;23.03;10.80;;;9.90;91.60;;;;;;5074311;28;20171;-87
2024/02/03 10:22:51;;;;;;;25.87;11.30;;;10.00;91.40;;;;;;5073777;28;20191;-87
2024/02/03 10:25:17;;;;;;;17.33;10.23;;;10.00;91.50;;;;;;5075028;28;20179;-87
2024/02/03 10:27:42;;;;;;;21.57;11.73;;;9.90;91.50;;;;;;5073547;28;20657;-87
2024/02/03 10:30:08;;;;;;;28.13;11.77;;;9.90;91.60;;;;;;5074081;28;20627;-87
2024/02/03 10:32:34;;;;;;;22.80;10.67;;;9.90;91.60;;;;;;5074768;28;20194;-87
2024/02/03 10:35:02;;;;;;;31.13;11.20;;;10.00;91.50;;;;;;5072462;28;20168;-87
2024/02/03 10:37:27;;;;;;;26.77;11.10;;;9.90;91.50;;;;;;5073201;28;20183;-87
2024/02/03 10:39:53;;;;;;;20.07;11.63;;;10.00;91.50;;;;;;5073981;28;20171;-88
2024/02/03 10:42:23;;;;;;;17.57;9.57;;;10.00;91.40;;;;;;5074022;28;20195;-86
2024/02/03 10:44:49;;;;;;;25.07;10.70;;;10.00;91.60;;;;;;5073171;28;20662;-87
2024/02/03 10:47:20;;;;;;;25.03;10.87;;;10.00;91.50;;;;;;5072926;28;20167;-87
2024/02/03 10:49:47;;;;;;;26.75;12.07;;;9.90;91.60;;;;;;5072411;28;20425;-87
2024/02/03 10:52:13;;;;;;;;;;;10.00;91.60;;;;;;5073173;28;20211;-87
2024/02/03 10:54:40;;;;;;;;;;;9.90;91.60;;;;;;5073069;28;19908;-87
2024/02/03 10:57:07;;;;;;;;;;;9.90;91.40;;;;;;5073216;28;19908;-88
2024/02/03 10:59:32;;;;;;;22.23;10.43;;;9.90;91.40;;;;;;5074137;28;19939;-86
2024/02/03 11:01:58;;;;;;;24.47;10.00;;;9.90;91.30;;;;;;5072591;28;20202;-87
2024/02/03 11:04:23;;;;;;;19.43;9.90;;;9.90;91.20;;;;;;5076100;28;20650;-88
2024/02/03 11:06:50;;;;;;;25.90;11.00;;;9.90;91.20;;;;;;5077041;28;20704;-88
2024/02/03 11:09:20;;;;;;;26.23;10.87;;;9.90;91.30;;;;;;5075813;28;20167;-89
2024/02/03 11:11:51;;;;;;;19.80;10.20;;;10.00;91.30;;;;;;5072979;28;20222;-86
2024/02/03 11:14:20;;;;;;;22.57;10.47;;;10.00;91.20;;;;;;5072379;28;20619;-86
2024/02/03 11:16:54;;;;;;;30.43;11.67;;;10.00;91.10;;;;;;5074578;28;20179;-88
2024/02/03 11:19:29;;;;;;;22.30;11.10;;;10.00;91.10;;;;;;5075107;28;20175;-86
2024/02/03 11:22:00;;;;;;;29.83;10.43;;;10.00;90.90;;;;;;5072559;28;20212;-86
2024/02/03 11:24:26;;;;;;;27.60;11.10;;;10.00;90.90;;;;;;5075063;28;20171;-86
2024/02/03 11:26:56;;;;;;;25.97;11.23;;;10.10;90.80;;;;;;5072325;28;20534;-86
2024/02/03 11:29:22;;;;;;;23.33;11.17;;;10.10;90.50;;;;;;5072150;28;20266;-86
2024/02/03 11:31:47;;;;;;;26.93;11.20;;;10.10;90.70;;;;;;5072121;28;20287;-86
2024/02/03 11:34:22;;;;;;;30.87;11.83;;;10.10;90.60;;;;;;5072050;28;20578;-86
2024/02/03 11:36:48;;;;;;;28.70;12.10;;;10.10;90.70;;;;;;5072342;28;20253;-86
2024/02/03 11:39:14;;;;;;;22.23;11.23;;;10.10;90.80;;;;;;5072206;28;20263;-86
2024/02/03 11:41:39;;;;;;;22.37;11.77;;;10.10;90.60;;;;;;5073185;28;20264;-86
2024/02/03 11:44:05;;;;;;;30.27;18.07;;;10.10;90.70;;;;;;5072254;28;20180;-86
2024/02/03 11:46:31;;;;;;;33.37;17.17;;;10.00;90.80;;;;;;5074180;28;20183;-91
2024/02/03 11:48:56;;;;;;;36.67;16.53;;;9.90;90.80;;;;;;5072267;28;20229;-86
2024/02/03 11:51:22;;;;;;;25.30;15.20;;;9.90;91.00;;;;;;5073240;28;20202;-86
2024/02/03 11:53:47;;;;;;;22.80;15.03;;;9.90;91.20;;;;;;5072648;28;20211;-86
2024/02/03 11:56:13;;;;;;;24.37;15.47;;;9.90;91.30;;;;;;5073182;28;20178;-86
2024/02/03 11:58:41;;;;;;;28.00;15.27;;;9.90;91.20;;;;;;5073053;28;20171;-86
2024/02/03 12:01:08;;;;;;;25.20;15.93;;;9.90;91.00;;;;;;5071912;28;20195;-86
2024/02/03 12:03:36;;;;;;;18.23;14.27;;;10.00;91.20;;;;;;5072133;28;20582;-86
2024/02/03 12:06:04;;;;;;;26.43;13.63;;;10.00;91.00;;;;;;5072867;28;20175;-87
2024/02/03 12:08:31;;;;;;;25.07;14.23;;;10.00;91.00;;;;;;5072026;28;20274;-86
2024/02/03 12:10:57;;;;;;;17.87;16.00;;;10.00;90.90;;;;;;5072844;28;20308;-86
2024/02/03 12:13:22;;;;;;;26.07;16.53;;;10.10;90.70;;;;;;5071693;28;20675;-87
2024/02/03 12:15:48;;;;;;;21.23;14.63;;;10.20;90.60;;;;;;5073113;28;20175;-87
2024/02/03 12:18:18;;;;;;;31.50;17.20;;;10.20;90.50;;;;;;5072075;28;20171;-87
2024/02/03 12:20:43;;;;;;;20.87;15.07;;;10.20;90.40;;;;;;5071988;28;20696;-87
2024/02/03 12:23:09;;;;;;;25.43;16.73;;;10.30;90.20;;;;;;5073067;28;20233;-86
2024/02/03 12:25:35;;;;;;;21.63;15.03;;;10.30;90.10;;;;;;5072000;28;20183;-86
2024/02/03 12:28:01;;;;;;;19.73;10.83;;;10.30;89.90;;;;;;5073028;28;20273;-86
2024/02/03 12:30:30;;;;;;;32.97;12.97;;;10.30;89.70;;;;;;5072854;28;20591;-86
2024/02/03 12:32:56;;;;;;;22.53;11.70;;;10.30;89.60;;;;;;5073995;28;20222;-87
2024/02/03 12:35:21;;;;;;;28.97;11.87;;;10.30;89.70;;;;;;5071415;28;20546;-87